Time,TemperatureF,DewpointF,PressureIn,WindDirection,WindDirectionDegrees,WindSpeedMPH,WindSpeedGustMPH,Humidity,HourlyPrecipIn,Conditions,Clouds,dailyrainin,SoftwareType,DateUTC
2013-09-04 00:01:00,62.2,54.2,30.06,NE,42,0.0,0.0,75,0.00,CLR,,0.00,WeatherDisplay:10.37,2013-09-04 04:01:00,
2013-09-04 00:02:00,62.2,54.2,30.06,NE,42,0.0,0.0,75,0.00,CLR,,0.00,WeatherDisplay:10.37,2013-09-04 04:02:00,
2013-09-04 00:07:00,61.9,53.9,30.06,NE,42,0.0,0.0,75,0.00,CLR,,0.00,WeatherDisplay:10.37,2013-09-04 04:07:00,
2013-09-04 00:12:00,61.9,53.9,30.06,NE,42,0.0,0.0,75,0.00,CLR,,0.00,WeatherDisplay:10.37,2013-09-04 04:12:00,
2013-09-04 00:17:00,61.7,53.7,30.06,NNE,19,0.0,0.0,75,0.00,CLR,,0.00,WeatherDisplay:10.37,2013-09-04 04:17:00,
2013-09-04 00:22:00,61.5,53.5,30.06,ENE,65,0.0,0.0,75,0.00,CLR,,0.00,WeatherDisplay:10.37,2013-09-04 04:22:00,
2013-09-04 00:27:00,61.3,53.3,30.06,NW,312,0.0,0.0,75,0.00,CLR,,0.00,WeatherDisplay:10.37,2013-09-04 04:27:00,
2013-09-04 00:32:00,61.3,53.3,30.06,East,87,0.0,0.0,75,0.00,CLR,,0.00,WeatherDisplay:10.37,2013-09-04 04:32:00,
2013-09-04 00:37:00,61.2,53.5,30.05,ESE,109,0.0,0.0,76,0.00,CLR,,0.00,WeatherDisplay:10.37,2013-09-04 04:37:00,
2013-09-04 00:42:00,61.3,53.7,30.05,NE,42,0.0,0.0,76,0.00,CLR,,0.00,WeatherDisplay:10.37,2013-09-04 04:42:00,
2013-09-04 00:47:00,61.5,53.5,30.06,NE,42,0.0,0.0,75,0.00,CLR,,0.00,WeatherDisplay:10.37,2013-09-04 04:47:00,
2013-09-04 00:52:00,61.5,53.5,30.06,ENE,65,0.0,0.0,75,0.00,CLR,,0.00,WeatherDisplay:10.37,2013-09-04 04:52:00,
2013-09-04 00:57:00,61.5,53.5,30.06,NE,42,0.0,0.0,75,0.00,CLR,,0.00,WeatherDisplay:10.37,2013-09-04 04:57:00,
2013-09-04 01:02:00,61.5,53.5,30.06,North,357,0.0,0.0,75,0.00,CLR,,0.00,WeatherDisplay:10.37,2013-09-04 05:02:00,
2013-09-04 01:07:00,61.5,53.5,30.06,East,87,0.0,0.0,75,0.00,CLR,,0.00,WeatherDisplay:10.37,2013-09-04 05:07:00,
2013-09-04 01:12:00,61.5,53.5,30.06,NE,42,0.0,0.0,75,0.00,CLR,,0.00,WeatherDisplay:10.37,2013-09-04 05:12:00,
2013-09-04 01:17:00,61.0,53.0,30.06,NE,42,0.0,0.0,75,0.00,CLR,,0.00,WeatherDisplay:10.37,2013-09-04 05:17:00,
2013-09-04 01:22:00,60.6,53.0,30.06,NE,42,0.0,0.0,76,0.00,CLR,,0.00,WeatherDisplay:10.37,2013-09-04 05:22:00,
2013-09-04 01:27:00,60.6,53.0,30.06,North,357,0.0,0.0,76,0.00,CLR,,0.00,WeatherDisplay:10.37,2013-09-04 05:27:00,
2013-09-04 01:32:00,60.4,52.8,30.06,North,357,0.0,0.0,76,0.00,CLR,,0.00,WeatherDisplay:10.37,2013-09-04 05:32:00,
2013-09-04 01:37:00,60.1,52.8,30.06,NNE,19,0.0,0.0,77,0.00,CLR,,0.00,WeatherDisplay:10.37,2013-09-04 05:37:00,
2013-09-04 01:42:00,60.1,53.2,30.06,North,357,0.0,0.0,78,0.00,CLR,,0.00,WeatherDisplay:10.37,2013-09-04 05:42:00,
2013-09-04 01:47:00,60.1,52.8,30.06,North,357,0.0,0.0,77,0.00,CLR,,0.00,WeatherDisplay:10.37,2013-09-04 05:47:00,
2013-09-04 01:52:00,60.1,52.8,30.06,NNW,335,0.0,0.0,77,0.00,CLR,,0.00,WeatherDisplay:10.37,2013-09-04 05:52:00,
2013-09-04 01:57:00,60.1,52.8,30.06,NNW,335,0.0,0.0,77,0.00,CLR,,0.00,WeatherDisplay:10.37,2013-09-04 05:57:00,
2013-09-04 02:02:00,59.7,52.5,30.05,North,357,0.0,0.0,77,0.00,CLR,,0.00,WeatherDisplay:10.37,2013-09-04 06:02:00,
2013-09-04 02:07:00,59.5,52.3,30.05,North,357,0.0,0.0,77,0.00,CLR,,0.00,WeatherDisplay:10.37,2013-09-04 06:07:00,
2013-09-04 02:12:00,59.4,52.1,30.05,North,357,0.0,0.0,77,0.00,CLR,,0.00,WeatherDisplay:10.37,2013-09-04 06:12:00,
2013-09-04 02:17:00,59.2,52.3,30.05,North,357,0.0,0.0,78,0.00,CLR,,0.00,WeatherDisplay:10.37,2013-09-04 06:17:00,
2013-09-04 02:22:00,59.2,52.3,30.05,NNW,335,0.0,0.0,78,0.00,CLR,,0.00,WeatherDisplay:10.37,2013-09-04 06:22:00,
2013-09-04 02:27:00,59.0,52.1,30.05,North,357,0.0,0.0,78,0.00,CLR,,0.00,WeatherDisplay:10.37,2013-09-04 06:27:00,
2013-09-04 02:32:00,59.0,52.1,30.06,North,357,0.0,0.0,78,0.00,CLR,,0.00,WeatherDisplay:10.37,2013-09-04 06:32:00,
2013-09-04 02:37:00,59.0,52.1,30.06,North,357,0.0,0.0,78,0.00,CLR,,0.00,WeatherDisplay:10.37,2013-09-04 06:37:00,
2013-09-04 02:42:00,58.8,52.0,30.06,NNE,19,0.0,0.0,78,0.00,CLR,,0.00,WeatherDisplay:10.37,2013-09-04 06:42:00,
2013-09-04 02:47:00,58.8,52.7,30.06,North,357,0.0,0.0,80,0.00,CLR,,0.00,WeatherDisplay:10.37,2013-09-04 06:47:00,
2013-09-04 02:52:00,58.8,52.7,30.06,NE,42,0.0,0.0,80,0.00,CLR,,0.00,WeatherDisplay:10.37,2013-09-04 06:52:00,
2013-09-04 02:57:00,58.8,52.7,30.06,NE,42,0.0,0.0,80,0.00,CLR,,0.00,WeatherDisplay:10.37,2013-09-04 06:57:00,
2013-09-04 03:02:00,58.8,52.7,30.06,NNW,335,0.0,0.0,80,0.00,CLR,,0.00,WeatherDisplay:10.37,2013-09-04 07:02:00,
2013-09-04 03:07:00,58.8,52.7,30.06,North,357,0.0,0.0,80,0.00,CLR,,0.00,WeatherDisplay:10.37,2013-09-04 07:07:00,
2013-09-04 03:12:00,58.8,52.3,30.05,North,357,0.0,0.0,79,0.00,CLR,,0.00,WeatherDisplay:10.37,2013-09-04 07:12:00,
2013-09-04 03:17:00,58.6,52.1,30.05,NNE,19,0.0,0.0,79,0.00,CLR,,0.00,WeatherDisplay:10.37,2013-09-04 07:17:00,
2013-09-04 03:22:00,58.6,52.1,30.05,NE,42,0.0,0.0,79,0.00,CLR,,0.00,WeatherDisplay:10.37,2013-09-04 07:22:00,
2013-09-04 03:27:00,58.6,52.5,30.05,North,357,0.0,0.0,80,0.00,CLR,,0.00,WeatherDisplay:10.37,2013-09-04 07:27:00,
2013-09-04 03:32:00,58.6,52.8,30.05,North,357,0.0,0.0,81,0.00,CLR,,0.00,WeatherDisplay:10.37,2013-09-04 07:32:00,
2013-09-04 03:37:00,58.6,52.8,30.05,North,357,0.0,0.0,81,0.00,CLR,,0.00,WeatherDisplay:10.37,2013-09-04 07:37:00,
2013-09-04 03:42:00,58.6,52.8,30.05,North,357,0.0,0.0,81,0.00,CLR,,0.00,WeatherDisplay:10.37,2013-09-04 07:42:00,
2013-09-04 03:47:00,58.6,52.8,30.06,North,357,0.0,0.0,81,0.00,CLR,,0.00,WeatherDisplay:10.37,2013-09-04 07:47:00,
2013-09-04 03:52:00,58.6,52.8,30.06,NNE,19,0.0,0.0,81,0.00,CLR,,0.00,WeatherDisplay:10.37,2013-09-04 07:52:00,
2013-09-04 03:57:00,58.5,52.6,30.06,North,357,0.0,0.0,81,0.00,CLR,,0.00,WeatherDisplay:10.37,2013-09-04 07:57:00,
2013-09-04 04:02:00,58.3,52.5,30.06,NE,42,0.0,0.0,81,0.00,CLR,,0.00,WeatherDisplay:10.37,2013-09-04 08:02:00,
2013-09-04 04:07:00,58.5,52.6,30.06,NE,42,0.0,0.0,81,0.00,CLR,,0.00,WeatherDisplay:10.37,2013-09-04 08:07:00,
2013-09-04 04:12:00,58.3,52.5,30.06,NE,42,0.0,0.0,81,0.00,CLR,,0.00,WeatherDisplay:10.37,2013-09-04 08:12:00,
2013-09-04 04:17:00,58.1,52.3,30.06,NNE,19,0.0,0.0,81,0.00,CLR,,0.00,WeatherDisplay:10.37,2013-09-04 08:17:00,
2013-09-04 04:22:00,58.1,52.6,30.05,North,357,0.0,0.0,82,0.00,CLR,,0.00,WeatherDisplay:10.37,2013-09-04 08:22:00,
2013-09-04 04:27:00,58.3,52.8,30.05,North,357,0.0,0.0,82,0.00,CLR,,0.00,WeatherDisplay:10.37,2013-09-04 08:27:00,
2013-09-04 04:32:00,58.5,53.0,30.06,NNW,335,0.0,0.0,82,0.00,CLR,,0.00,WeatherDisplay:10.37,2013-09-04 08:32:00,
2013-09-04 04:37:00,58.5,53.0,30.06,North,357,0.0,0.0,82,0.00,CLR,,0.00,WeatherDisplay:10.37,2013-09-04 08:37:00,
2013-09-04 04:42:00,58.5,52.6,30.05,North,357,0.0,0.0,81,0.00,CLR,,0.00,WeatherDisplay:10.37,2013-09-04 08:42:00,
2013-09-04 04:47:00,58.3,52.5,30.05,NNE,19,0.0,0.0,81,0.00,CLR,,0.00,WeatherDisplay:10.37,2013-09-04 08:47:00,
2013-09-04 04:52:00,58.1,52.3,30.05,North,357,0.0,0.0,81,0.00,CLR,,0.00,WeatherDisplay:10.37,2013-09-04 08:52:00,
2013-09-04 04:57:00,57.9,52.1,30.06,North,357,0.0,0.0,81,0.00,CLR,,0.00,WeatherDisplay:10.37,2013-09-04 08:57:00,
2013-09-04 05:02:00,57.9,52.1,30.05,North,357,0.0,0.0,81,0.00,CLR,,0.00,WeatherDisplay:10.37,2013-09-04 09:02:00,
2013-09-04 05:07:00,57.9,52.1,30.06,NNW,335,0.0,0.0,81,0.00,CLR,,0.00,WeatherDisplay:10.37,2013-09-04 09:07:00,
2013-09-04 05:12:00,57.9,52.5,30.05,North,357,0.0,0.0,82,0.00,CLR,,0.00,WeatherDisplay:10.37,2013-09-04 09:12:00,
2013-09-04 05:17:00,58.1,52.6,30.06,NNW,335,1.1,1.1,82,0.00,CLR,,0.00,WeatherDisplay:10.37,2013-09-04 09:17:00,
2013-09-04 05:22:00,58.5,53.0,30.06,North,357,0.0,0.0,82,0.00,CLR,,0.00,WeatherDisplay:10.37,2013-09-04 09:22:00,
2013-09-04 05:27:00,58.6,53.2,30.06,NNE,19,0.0,0.0,82,0.00,CLR,,0.00,WeatherDisplay:10.37,2013-09-04 09:27:00,
2013-09-04 05:32:00,58.5,53.0,30.06,North,357,0.0,0.0,82,0.00,CLR,,0.00,WeatherDisplay:10.37,2013-09-04 09:32:00,
2013-09-04 05:37:00,58.3,52.8,30.06,North,357,0.0,0.0,82,0.00,CLR,,0.00,WeatherDisplay:10.37,2013-09-04 09:37:00,
2013-09-04 05:42:00,57.9,52.5,30.06,NE,42,0.0,0.0,82,0.00,CLR,,0.00,WeatherDisplay:10.37,2013-09-04 09:42:00,
2013-09-04 05:47:00,57.7,52.6,30.06,ENE,65,0.0,0.0,83,0.00,CLR,,0.00,WeatherDisplay:10.37,2013-09-04 09:47:00,
2013-09-04 05:52:00,57.6,52.4,30.06,NNE,19,0.0,0.0,83,0.00,CLR,,0.00,WeatherDisplay:10.37,2013-09-04 09:52:00,
2013-09-04 05:57:00,57.4,51.9,30.06,NNE,19,0.0,0.0,82,0.00,CLR,,0.00,WeatherDisplay:10.37,2013-09-04 09:57:00,
2013-09-04 06:02:00,57.0,51.9,30.06,NNE,19,0.0,0.0,83,0.00,CLR,,0.00,WeatherDisplay:10.37,2013-09-04 10:02:00,
2013-09-04 06:07:00,57.0,52.2,30.06,North,357,0.0,0.0,84,0.00,CLR,,0.00,WeatherDisplay:10.37,2013-09-04 10:07:00,
2013-09-04 06:12:00,57.4,52.6,30.06,NNE,19,0.0,0.0,84,0.00,CLR,,0.00,WeatherDisplay:10.37,2013-09-04 10:12:00,
2013-09-04 06:17:00,57.2,52.4,30.06,North,357,0.0,0.0,84,0.00,CLR,,0.00,WeatherDisplay:10.37,2013-09-04 10:17:00,
2013-09-04 06:22:00,57.4,52.6,30.06,North,357,0.0,0.0,84,0.00,CLR,,0.00,WeatherDisplay:10.37,2013-09-04 10:22:00,
2013-09-04 06:27:00,57.4,52.6,30.07,North,357,0.0,0.0,84,0.00,CLR,,0.00,WeatherDisplay:10.37,2013-09-04 10:27:00,
2013-09-04 06:32:00,57.0,52.2,30.07,NNE,19,0.0,0.0,84,0.00,CLR,,0.00,WeatherDisplay:10.37,2013-09-04 10:32:00,
2013-09-04 06:37:00,57.0,52.2,30.07,NNE,19,0.0,0.0,84,0.00,CLR,,0.00,WeatherDisplay:10.37,2013-09-04 10:37:00,
2013-09-04 06:42:00,57.0,52.6,30.07,NNE,19,0.0,0.0,85,0.00,CLR,,0.00,WeatherDisplay:10.37,2013-09-04 10:42:00,
2013-09-04 06:47:00,57.0,52.6,30.07,NNW,335,0.9,1.1,85,0.00,CLR,,0.00,WeatherDisplay:10.37,2013-09-04 10:47:00,
2013-09-04 06:52:00,57.0,52.6,30.08,NE,42,0.0,1.1,85,0.00,CLR,,0.00,WeatherDisplay:10.37,2013-09-04 10:52:00,
2013-09-04 06:57:00,57.0,52.9,30.08,North,357,0.0,1.8,86,0.00,CLR,,0.00,WeatherDisplay:10.37,2013-09-04 10:57:00,
2013-09-04 07:02:00,57.0,52.9,30.08,NNE,19,0.0,0.0,86,0.00,CLR,,0.00,WeatherDisplay:10.37,2013-09-04 11:02:00,
2013-09-04 07:07:00,57.0,52.9,30.08,North,357,0.0,0.0,86,0.00,CLR,,0.00,WeatherDisplay:10.37,2013-09-04 11:07:00,
2013-09-04 07:12:00,57.0,52.9,30.08,NNE,19,0.0,0.0,86,0.00,CLR,,0.00,WeatherDisplay:10.37,2013-09-04 11:12:00,
2013-09-04 07:17:00,57.0,52.9,30.08,ENE,65,0.0,0.0,86,0.00,CLR,,0.00,WeatherDisplay:10.37,2013-09-04 11:17:00,
2013-09-04 07:22:00,56.8,52.4,30.08,North,357,0.0,0.0,85,0.00,CLR,,0.00,WeatherDisplay:10.37,2013-09-04 11:22:00,
2013-09-04 07:27:00,56.5,52.0,30.09,North,357,0.0,0.0,85,0.00,CLR,,0.00,WeatherDisplay:10.37,2013-09-04 11:27:00,
2013-09-04 07:32:00,56.5,52.0,30.09,NNE,19,0.0,0.0,85,0.00,CLR,,0.00,WeatherDisplay:10.37,2013-09-04 11:32:00,
2013-09-04 07:37:00,56.5,52.0,30.09,NNE,19,0.0,0.0,85,0.00,CLR,,0.00,WeatherDisplay:10.37,2013-09-04 11:37:00,
2013-09-04 07:42:00,56.5,52.0,30.09,NNE,19,0.0,0.0,85,0.00,CLR,,0.00,WeatherDisplay:10.37,2013-09-04 11:42:00,
2013-09-04 07:47:00,56.5,52.3,30.10,NNE,19,0.0,0.0,86,0.00,CLR,,0.00,WeatherDisplay:10.37,2013-09-04 11:47:00,
2013-09-04 07:52:00,56.8,52.7,30.10,North,357,0.0,0.0,86,0.00,CLR,,0.00,WeatherDisplay:10.37,2013-09-04 11:52:00,
2013-09-04 07:57:00,57.0,52.9,30.10,NNE,19,0.0,0.0,86,0.00,CLR,,0.00,WeatherDisplay:10.37,2013-09-04 11:57:00,
2013-09-04 08:02:00,57.4,53.2,30.10,NE,42,0.0,0.0,86,0.00,CLR,,0.00,WeatherDisplay:10.37,2013-09-04 12:02:00,
2013-09-04 08:07:00,57.4,53.2,30.11,NNE,19,0.0,0.0,86,0.00,CLR,,0.00,WeatherDisplay:10.37,2013-09-04 12:07:00,
2013-09-04 08:12:00,57.7,53.6,30.10,NNE,19,0.0,0.0,86,0.00,CLR,,0.00,WeatherDisplay:10.37,2013-09-04 12:12:00,
2013-09-04 08:17:00,57.9,53.8,30.11,NNE,19,0.0,0.0,86,0.00,CLR,,0.00,WeatherDisplay:10.37,2013-09-04 12:17:00,
2013-09-04 08:22:00,58.3,54.1,30.11,NNE,19,0.0,0.0,86,0.00,CLR,,0.00,WeatherDisplay:10.37,2013-09-04 12:22:00,
2013-09-04 08:27:00,58.8,54.6,30.11,North,357,0.0,0.0,86,0.00,CLR,,0.00,WeatherDisplay:10.37,2013-09-04 12:27:00,
2013-09-04 08:32:00,59.0,54.8,30.11,NNW,335,0.0,0.0,86,0.00,CLR,,0.00,WeatherDisplay:10.37,2013-09-04 12:32:00,
2013-09-04 08:37:00,59.7,55.2,30.11,NNW,335,0.0,0.0,85,0.00,CLR,,0.00,WeatherDisplay:10.37,2013-09-04 12:37:00,
2013-09-04 08:42:00,60.1,55.6,30.11,NE,42,0.0,0.0,85,0.00,CLR,,0.00,WeatherDisplay:10.37,2013-09-04 12:42:00,
2013-09-04 08:47:00,60.6,55.8,30.11,NNE,19,0.0,0.0,84,0.00,CLR,,0.00,WeatherDisplay:10.37,2013-09-04 12:47:00,
2013-09-04 08:52:00,61.0,56.1,30.11,NE,42,0.0,0.0,84,0.00,CLR,,0.00,WeatherDisplay:10.37,2013-09-04 12:52:00,
2013-09-04 08:57:00,61.9,56.7,30.11,ENE,65,1.1,1.1,83,0.00,CLR,,0.00,WeatherDisplay:10.37,2013-09-04 12:57:00,
2013-09-04 09:02:00,62.8,57.5,30.11,North,357,0.8,1.1,83,0.00,CLR,,0.00,WeatherDisplay:10.37,2013-09-04 13:02:00,
2013-09-04 09:07:00,63.5,57.9,30.11,ESE,109,0.0,0.0,82,0.00,CLR,,0.00,WeatherDisplay:10.37,2013-09-04 13:07:00,
2013-09-04 09:12:00,64.6,58.6,30.12,ENE,65,0.0,0.0,81,0.00,CLR,,0.00,WeatherDisplay:10.37,2013-09-04 13:12:00,
2013-09-04 09:17:00,64.9,58.3,30.12,ENE,65,0.0,0.0,79,0.00,CLR,,0.00,WeatherDisplay:10.37,2013-09-04 13:17:00,
2013-09-04 09:22:00,65.5,58.8,30.12,NE,42,0.0,0.0,79,0.00,CLR,,0.00,WeatherDisplay:10.37,2013-09-04 13:22:00,
2013-09-04 09:27:00,66.4,59.3,30.12,ENE,65,0.0,0.0,78,0.00,CLR,,0.00,WeatherDisplay:10.37,2013-09-04 13:27:00,
2013-09-04 09:32:00,67.3,59.5,30.12,East,87,2.0,2.3,76,0.00,CLR,,0.00,WeatherDisplay:10.37,2013-09-04 13:32:00,
2013-09-04 09:37:00,68.0,60.2,30.12,NNW,335,0.0,0.0,76,0.00,CLR,,0.00,WeatherDisplay:10.37,2013-09-04 13:37:00,
2013-09-04 09:42:00,68.5,60.3,30.12,ENE,65,0.0,0.0,75,0.00,CLR,,0.00,WeatherDisplay:10.37,2013-09-04 13:42:00,
2013-09-04 09:47:00,69.4,60.4,30.12,East,87,0.9,1.1,73,0.00,CLR,,0.00,WeatherDisplay:10.37,2013-09-04 13:47:00,
2013-09-04 09:52:00,70.0,60.5,30.12,ENE,65,2.9,3.5,72,0.00,CLR,,0.00,WeatherDisplay:10.37,2013-09-04 13:52:00,
2013-09-04 09:57:00,70.2,60.3,30.12,ENE,65,0.0,0.0,71,0.00,CLR,,0.00,WeatherDisplay:10.37,2013-09-04 13:57:00,
2013-09-04 10:02:00,70.7,60.4,30.13,ENE,65,1.3,3.5,70,0.00,CLR,,0.00,WeatherDisplay:10.37,2013-09-04 14:02:00,
2013-09-04 10:07:00,71.2,60.1,30.13,West,267,0.0,0.0,68,0.00,CLR,,0.00,WeatherDisplay:10.37,2013-09-04 14:07:00,
2013-09-04 10:12:00,71.8,60.6,30.13,ESE,109,1.0,1.1,68,0.00,CLR,,0.00,WeatherDisplay:10.37,2013-09-04 14:12:00,
2013-09-04 10:17:00,72.3,60.7,30.13,ESE,109,0.0,0.0,67,0.00,CLR,,0.00,WeatherDisplay:10.37,2013-09-04 14:17:00,
2013-09-04 10:22:00,72.9,61.3,30.13,East,87,0.0,0.0,67,0.00,CLR,,0.00,WeatherDisplay:10.37,2013-09-04 14:22:00,
2013-09-04 10:27:00,74.1,62.0,30.13,NW,312,2.0,2.3,66,0.00,CLR,,0.00,WeatherDisplay:10.37,2013-09-04 14:27:00,
2013-09-04 10:32:00,74.5,60.6,30.14,NNW,335,2.8,4.6,62,0.00,CLR,,0.00,WeatherDisplay:10.37,2013-09-04 14:32:00,
2013-09-04 10:37:00,73.9,59.6,30.13,North,357,2.5,2.5,61,0.00,CLR,,0.00,WeatherDisplay:10.37,2013-09-04 14:37:00,
2013-09-04 10:42:00,73.9,60.1,30.14,WNW,289,0.0,0.0,62,0.00,CLR,,0.00,WeatherDisplay:10.37,2013-09-04 14:42:00,
2013-09-04 10:47:00,74.1,59.3,30.14,NNE,19,1.0,3.5,60,0.00,CLR,,0.00,WeatherDisplay:10.37,2013-09-04 14:47:00,
2013-09-04 10:52:00,74.3,60.4,30.14,NE,42,0.0,0.0,62,0.00,CLR,,0.00,WeatherDisplay:10.37,2013-09-04 14:52:00,
2013-09-04 10:57:00,74.3,60.0,30.14,NW,312,2.2,2.3,61,0.00,CLR,,0.00,WeatherDisplay:10.37,2013-09-04 14:57:00,
2013-09-04 11:02:00,74.1,59.3,30.14,East,87,3.4,3.5,60,0.00,CLR,,0.00,WeatherDisplay:10.37,2013-09-04 15:02:00,
2013-09-04 11:07:00,74.5,60.6,30.14,NW,312,0.0,0.0,62,0.00,CLR,,0.00,WeatherDisplay:10.37,2013-09-04 15:07:00,
2013-09-04 11:12:00,75.4,60.5,30.14,North,357,0.4,0.0,60,0.00,CLR,,0.00,WeatherDisplay:10.37,2013-09-04 15:12:00,
2013-09-04 11:17:00,75.4,60.1,30.14,ESE,109,3.5,4.6,59,0.00,CLR,,0.00,WeatherDisplay:10.37,2013-09-04 15:17:00,
2013-09-04 11:22:00,75.6,60.2,30.14,NW,312,0.0,0.0,59,0.00,CLR,,0.00,WeatherDisplay:10.37,2013-09-04 15:22:00,
2013-09-04 11:27:00,75.9,59.6,30.14,East,87,4.2,4.6,57,0.00,CLR,,0.00,WeatherDisplay:10.37,2013-09-04 15:27:00,
2013-09-04 11:32:00,75.7,60.4,30.14,SE,132,1.1,1.1,59,0.00,CLR,,0.00,WeatherDisplay:10.37,2013-09-04 15:32:00,
2013-09-04 11:37:00,75.9,59.6,30.14,NNW,335,0.0,0.0,57,0.00,CLR,,0.00,WeatherDisplay:10.37,2013-09-04 15:37:00,
2013-09-04 11:42:00,76.3,59.9,30.14,SE,132,0.1,0.9,57,0.00,CLR,,0.00,WeatherDisplay:10.37,2013-09-04 15:42:00,
2013-09-04 11:47:00,76.6,60.3,30.14,ENE,65,2.5,3.8,57,0.00,CLR,,0.00,WeatherDisplay:10.37,2013-09-04 15:47:00,
2013-09-04 11:52:00,77.5,60.6,30.14,ESE,109,3.1,3.5,56,0.00,CLR,,0.00,WeatherDisplay:10.37,2013-09-04 15:52:00,
2013-09-04 11:57:00,78.3,60.8,30.14,ENE,65,3.3,4.5,55,0.00,CLR,,0.00,WeatherDisplay:10.37,2013-09-04 15:57:00,
2013-09-04 12:02:00,78.6,61.1,30.13,ENE,65,0.0,0.0,55,0.00,CLR,,0.00,WeatherDisplay:10.37,2013-09-04 16:02:00,
2013-09-04 12:07:00,78.8,60.7,30.14,NNE,19,1.1,1.3,54,0.00,CLR,,0.00,WeatherDisplay:10.37,2013-09-04 16:07:00,
2013-09-04 12:12:00,78.1,60.1,30.14,South,177,2.8,3.5,54,0.00,CLR,,0.00,WeatherDisplay:10.37,2013-09-04 16:12:00,
2013-09-04 12:17:00,78.1,60.1,30.14,NE,42,1.6,3.5,54,0.00,CLR,,0.00,WeatherDisplay:10.37,2013-09-04 16:17:00,
2013-09-04 12:22:00,78.6,60.6,30.14,SSW,199,0.0,0.0,54,0.00,CLR,,0.00,WeatherDisplay:10.37,2013-09-04 16:22:00,
2013-09-04 12:27:00,79.5,61.4,30.14,ENE,65,3.2,3.5,54,0.00,CLR,,0.00,WeatherDisplay:10.37,2013-09-04 16:27:00,
2013-09-04 12:32:00,80.2,61.6,30.14,NE,42,0.0,4.6,53,0.00,CLR,,0.00,WeatherDisplay:10.37,2013-09-04 16:32:00,
2013-09-04 12:37:00,80.2,61.0,30.14,West,267,0.0,0.0,52,0.00,CLR,,0.00,WeatherDisplay:10.37,2013-09-04 16:37:00,
2013-09-04 12:42:00,80.1,60.3,30.14,ESE,109,3.0,3.5,51,0.00,CLR,,0.00,WeatherDisplay:10.37,2013-09-04 16:42:00,
2013-09-04 12:47:00,80.6,61.3,30.13,SSW,199,1.5,1.6,52,0.00,CLR,,0.00,WeatherDisplay:10.37,2013-09-04 16:47:00,
2013-09-04 12:52:00,80.8,60.4,30.13,SE,132,0.0,0.0,50,0.00,CLR,,0.00,WeatherDisplay:10.37,2013-09-04 16:52:00,
2013-09-04 12:57:00,80.4,60.6,30.13,ENE,65,1.1,1.1,51,0.00,CLR,,0.00,WeatherDisplay:10.37,2013-09-04 16:57:00,
2013-09-04 13:02:00,80.4,60.1,30.13,North,357,0.9,2.3,50,0.00,CLR,,0.00,WeatherDisplay:10.37,2013-09-04 17:02:00,
2013-09-04 13:07:00,79.9,59.0,30.13,NNE,19,0.0,0.0,49,0.00,CLR,,0.00,WeatherDisplay:10.37,2013-09-04 17:07:00,
2013-09-04 13:12:00,79.2,58.4,30.13,NNE,19,2.0,2.3,49,0.00,CLR,,0.00,WeatherDisplay:10.37,2013-09-04 17:12:00,
2013-09-04 13:17:00,79.0,59.3,30.13,NNE,19,1.1,1.1,51,0.00,CLR,,0.00,WeatherDisplay:10.37,2013-09-04 17:17:00,
2013-09-04 13:22:00,79.0,59.3,30.13,ESE,109,0.0,0.0,51,0.00,CLR,,0.00,WeatherDisplay:10.37,2013-09-04 17:22:00,
2013-09-04 13:27:00,79.3,60.2,30.13,North,357,2.8,3.5,52,0.00,CLR,,0.00,WeatherDisplay:10.37,2013-09-04 17:27:00,
2013-09-04 13:32:00,79.5,59.8,30.12,NNW,335,3.5,4.0,51,0.00,CLR,,0.00,WeatherDisplay:10.37,2013-09-04 17:32:00,
2013-09-04 13:37:00,79.7,60.5,30.12,ENE,65,0.0,0.0,52,0.00,CLR,,0.00,WeatherDisplay:10.37,2013-09-04 17:37:00,
2013-09-04 13:42:00,80.6,61.3,30.12,North,357,3.0,4.6,52,0.00,CLR,,0.00,WeatherDisplay:10.37,2013-09-04 17:42:00,
2013-09-04 13:47:00,80.8,61.5,30.12,SSE,155,0.0,0.0,52,0.00,CLR,,0.00,WeatherDisplay:10.37,2013-09-04 17:47:00,
2013-09-04 13:52:00,81.0,61.7,30.12,ESE,109,0.0,0.0,52,0.00,CLR,,0.00,WeatherDisplay:10.37,2013-09-04 17:52:00,
2013-09-04 13:57:00,81.3,62.0,30.13,NW,312,1.1,2.3,52,0.00,CLR,,0.00,WeatherDisplay:10.37,2013-09-04 17:57:00,
2013-09-04 14:02:00,81.0,60.0,30.12,WNW,289,1.0,4.6,49,0.00,CLR,,0.00,WeatherDisplay:10.37,2013-09-04 18:02:00,
2013-09-04 14:07:00,80.4,60.1,30.13,NW,312,0.9,1.1,50,0.00,CLR,,0.00,WeatherDisplay:10.37,2013-09-04 18:07:00,
2013-09-04 14:12:00,80.8,61.5,30.12,NNE,19,0.3,1.6,52,0.00,CLR,,0.00,WeatherDisplay:10.37,2013-09-04 18:12:00,
2013-09-04 14:17:00,81.1,62.4,30.12,WSW,245,3.8,3.8,53,0.00,CLR,,0.00,WeatherDisplay:10.37,2013-09-04 18:17:00,
2013-09-04 14:22:00,82.6,63.7,30.12,West,267,2.5,2.5,53,0.00,CLR,,0.00,WeatherDisplay:10.37,2013-09-04 18:22:00,
2013-09-04 14:27:00,82.9,63.5,30.12,NW,312,1.5,2.3,52,0.00,CLR,,0.00,WeatherDisplay:10.37,2013-09-04 18:27:00,
2013-09-04 14:32:00,82.8,62.2,30.12,WNW,289,0.0,3.5,50,0.00,CLR,,0.00,WeatherDisplay:10.37,2013-09-04 18:32:00,
2013-09-04 14:37:00,82.6,62.1,30.12,NW,312,2.5,2.5,50,0.00,CLR,,0.00,WeatherDisplay:10.37,2013-09-04 18:37:00,
2013-09-04 14:42:00,82.8,63.9,30.12,SE,132,0.9,2.3,53,0.00,CLR,,0.00,WeatherDisplay:10.37,2013-09-04 18:42:00,
2013-09-04 14:47:00,82.9,62.4,30.12,NNW,335,0.7,1.1,50,0.00,CLR,,0.00,WeatherDisplay:10.37,2013-09-04 18:47:00,
2013-09-04 14:52:00,82.8,62.2,30.12,NNW,335,4.2,4.6,50,0.00,CLR,,0.00,WeatherDisplay:10.37,2013-09-04 18:52:00,
2013-09-04 14:57:00,81.7,60.7,30.11,NNW,335,3.7,5.1,49,0.00,CLR,,0.00,WeatherDisplay:10.37,2013-09-04 18:57:00,
2013-09-04 15:02:00,81.1,60.7,30.11,West,267,1.8,2.3,50,0.00,CLR,,0.00,WeatherDisplay:10.37,2013-09-04 19:02:00,
2013-09-04 15:07:00,81.5,61.6,30.11,WSW,245,0.1,1.1,51,0.00,CLR,,0.00,WeatherDisplay:10.37,2013-09-04 19:07:00,
2013-09-04 15:12:00,82.0,62.1,30.11,WNW,289,0.4,1.1,51,0.00,CLR,,0.00,WeatherDisplay:10.37,2013-09-04 19:12:00,
2013-09-04 15:17:00,82.0,62.1,30.11,WNW,289,0.0,0.0,51,0.00,CLR,,0.00,WeatherDisplay:10.37,2013-09-04 19:17:00,
2013-09-04 15:22:00,82.0,61.6,30.11,SSE,155,0.0,0.0,50,0.00,CLR,,0.00,WeatherDisplay:10.37,2013-09-04 19:22:00,
2013-09-04 15:27:00,82.2,62.8,30.11,SW,222,1.3,3.5,52,0.00,CLR,,0.00,WeatherDisplay:10.37,2013-09-04 19:27:00,
2013-09-04 15:32:00,82.2,61.7,30.10,NNW,335,2.5,5.8,50,0.00,CLR,,0.00,WeatherDisplay:10.37,2013-09-04 19:32:00,
2013-09-04 15:37:00,82.0,62.1,30.10,WNW,289,2.4,2.4,51,0.00,CLR,,0.00,WeatherDisplay:10.37,2013-09-04 19:37:00,
2013-09-04 15:42:00,82.0,62.1,30.11,NNW,335,0.9,2.3,51,0.00,CLR,,0.00,WeatherDisplay:10.37,2013-09-04 19:42:00,
2013-09-04 15:47:00,81.7,61.2,30.10,NNE,19,0.0,3.5,50,0.00,CLR,,0.00,WeatherDisplay:10.37,2013-09-04 19:47:00,
2013-09-04 15:52:00,81.5,61.1,30.10,SE,132,0.0,0.0,50,0.00,CLR,,0.00,WeatherDisplay:10.37,2013-09-04 19:52:00,
2013-09-04 15:57:00,81.5,60.5,30.10,WNW,289,5.6,6.9,49,0.00,CLR,,0.00,WeatherDisplay:10.37,2013-09-04 19:57:00,
2013-09-04 16:02:00,81.5,61.6,30.11,West,267,0.0,1.1,51,0.00,CLR,,0.00,WeatherDisplay:10.37,2013-09-04 20:02:00,
2013-09-04 16:07:00,81.7,61.2,30.10,West,267,1.6,1.6,50,0.00,CLR,,0.00,WeatherDisplay:10.37,2013-09-04 20:07:00,
2013-09-04 16:12:00,82.0,62.1,30.11,ESE,109,0.4,1.1,51,0.00,CLR,,0.00,WeatherDisplay:10.37,2013-09-04 20:12:00,
2013-09-04 16:17:00,82.0,61.0,30.11,WNW,289,0.0,0.0,49,0.00,CLR,,0.00,WeatherDisplay:10.37,2013-09-04 20:17:00,
2013-09-04 16:22:00,81.7,61.2,30.11,ENE,65,1.3,1.3,50,0.00,CLR,,0.00,WeatherDisplay:10.37,2013-09-04 20:22:00,
2013-09-04 16:27:00,81.3,60.9,30.11,North,357,0.8,1.1,50,0.00,CLR,,0.00,WeatherDisplay:10.37,2013-09-04 20:27:00,
2013-09-04 16:32:00,81.3,61.5,30.10,South,177,1.3,1.3,51,0.00,CLR,,0.00,WeatherDisplay:10.37,2013-09-04 20:32:00,
2013-09-04 16:37:00,82.0,62.1,30.10,SE,132,0.0,0.0,51,0.00,CLR,,0.00,WeatherDisplay:10.37,2013-09-04 20:37:00,
2013-09-04 16:42:00,82.2,61.7,30.11,West,267,1.0,2.3,50,0.00,CLR,,0.00,WeatherDisplay:10.37,2013-09-04 20:42:00,
2013-09-04 16:47:00,82.6,62.1,30.11,West,267,0.0,1.1,50,0.00,CLR,,0.00,WeatherDisplay:10.37,2013-09-04 20:47:00,
2013-09-04 16:52:00,82.0,61.0,30.10,NNW,335,3.8,3.8,49,0.00,CLR,,0.00,WeatherDisplay:10.37,2013-09-04 20:52:00,
2013-09-04 16:57:00,81.5,61.6,30.10,SE,132,2.1,2.3,51,0.00,CLR,,0.00,WeatherDisplay:10.37,2013-09-04 20:57:00,
2013-09-04 17:02:00,81.3,60.9,30.10,NNE,19,1.3,1.3,50,0.00,CLR,,0.00,WeatherDisplay:10.37,2013-09-04 21:02:00,
2013-09-04 17:07:00,81.1,61.3,30.10,WNW,289,0.9,2.5,51,0.00,CLR,,0.00,WeatherDisplay:10.37,2013-09-04 21:07:00,
2013-09-04 17:12:00,81.1,60.7,30.09,NW,312,1.5,1.5,50,0.00,CLR,,0.00,WeatherDisplay:10.37,2013-09-04 21:12:00,
2013-09-04 17:17:00,81.1,60.7,30.09,WNW,289,3.6,3.6,50,0.00,CLR,,0.00,WeatherDisplay:10.37,2013-09-04 21:17:00,
2013-09-04 17:22:00,81.0,60.6,30.09,ENE,65,1.3,1.3,50,0.00,CLR,,0.00,WeatherDisplay:10.37,2013-09-04 21:22:00,
2013-09-04 17:27:00,80.8,60.4,30.10,NE,42,0.4,1.1,50,0.00,CLR,,0.00,WeatherDisplay:10.37,2013-09-04 21:27:00,
2013-09-04 17:32:00,81.0,60.6,30.10,West,267,0.7,1.1,50,0.00,CLR,,0.00,WeatherDisplay:10.37,2013-09-04 21:32:00,
2013-09-04 17:37:00,81.0,60.6,30.10,West,267,0.7,1.1,50,0.00,CLR,,0.00,WeatherDisplay:10.37,2013-09-04 21:37:00,
2013-09-04 17:42:00,80.8,60.4,30.09,WNW,289,0.0,0.0,50,0.00,CLR,,0.00,WeatherDisplay:10.37,2013-09-04 21:42:00,
2013-09-04 17:47:00,80.8,60.4,30.09,NW,312,2.0,3.5,50,0.00,CLR,,0.00,WeatherDisplay:10.37,2013-09-04 21:47:00,
2013-09-04 17:52:00,80.4,60.6,30.09,NNE,19,0.0,0.0,51,0.00,CLR,,0.00,WeatherDisplay:10.37,2013-09-04 21:52:00,
2013-09-04 17:57:00,80.2,60.5,30.09,WNW,289,1.3,3.5,51,0.00,CLR,,0.00,WeatherDisplay:10.37,2013-09-04 21:57:00,
2013-09-04 18:02:00,80.2,61.0,30.09,West,267,0.0,2.3,52,0.00,CLR,,0.00,WeatherDisplay:10.37,2013-09-04 22:02:00,
2013-09-04 18:07:00,80.2,61.0,30.09,NW,312,0.1,2.9,52,0.00,CLR,,0.00,WeatherDisplay:10.37,2013-09-04 22:07:00,
2013-09-04 18:12:00,80.2,61.0,30.09,WNW,289,2.9,3.5,52,0.00,CLR,,0.00,WeatherDisplay:10.37,2013-09-04 22:12:00,
2013-09-04 18:17:00,79.9,60.1,30.09,West,267,0.0,2.3,51,0.00,CLR,,0.00,WeatherDisplay:10.37,2013-09-04 22:17:00,
2013-09-04 18:22:00,79.9,60.1,30.09,NNW,335,0.7,1.1,51,0.00,CLR,,0.00,WeatherDisplay:10.37,2013-09-04 22:22:00,
2013-09-04 18:27:00,79.9,60.7,30.10,North,357,0.0,0.0,52,0.00,CLR,,0.00,WeatherDisplay:10.37,2013-09-04 22:27:00,
2013-09-04 18:32:00,79.9,61.2,30.10,NW,312,1.6,2.3,53,0.00,CLR,,0.00,WeatherDisplay:10.37,2013-09-04 22:32:00,
2013-09-04 18:37:00,79.7,60.5,30.10,NW,312,1.1,1.1,52,0.00,CLR,,0.00,WeatherDisplay:10.37,2013-09-04 22:37:00,
2013-09-04 18:42:00,79.7,60.5,30.10,West,267,0.0,0.0,52,0.00,CLR,,0.00,WeatherDisplay:10.37,2013-09-04 22:42:00,
2013-09-04 18:47:00,79.5,60.9,30.10,North,357,0.0,2.3,53,0.00,CLR,,0.00,WeatherDisplay:10.37,2013-09-04 22:47:00,
2013-09-04 18:52:00,79.3,60.7,30.10,NW,312,0.7,2.9,53,0.00,CLR,,0.00,WeatherDisplay:10.37,2013-09-04 22:52:00,
2013-09-04 18:57:00,79.2,61.1,30.09,North,357,0.1,1.1,54,0.00,CLR,,0.00,WeatherDisplay:10.37,2013-09-04 22:57:00,
2013-09-04 19:02:00,79.0,61.4,30.09,ENE,65,0.0,0.0,55,0.00,CLR,,0.00,WeatherDisplay:10.37,2013-09-04 23:02:00,
2013-09-04 19:07:00,78.6,61.1,30.09,ENE,65,0.0,0.0,55,0.00,CLR,,0.00,WeatherDisplay:10.37,2013-09-04 23:07:00,
2013-09-04 19:12:00,78.1,61.1,30.09,ESE,109,0.0,0.0,56,0.00,CLR,,0.00,WeatherDisplay:10.37,2013-09-04 23:12:00,
2013-09-04 19:17:00,77.7,60.8,30.09,ENE,65,0.0,0.0,56,0.00,CLR,,0.00,WeatherDisplay:10.37,2013-09-04 23:17:00,
2013-09-04 19:22:00,77.5,61.1,30.09,ENE,65,0.0,0.0,57,0.00,CLR,,0.00,WeatherDisplay:10.37,2013-09-04 23:22:00,
2013-09-04 19:27:00,77.0,60.6,30.09,NNE,19,0.0,0.0,57,0.00,CLR,,0.00,WeatherDisplay:10.37,2013-09-04 23:27:00,
2013-09-04 19:32:00,76.8,60.9,30.08,NNE,19,0.0,0.0,58,0.00,CLR,,0.00,WeatherDisplay:10.37,2013-09-04 23:32:00,
2013-09-04 19:37:00,76.1,60.7,30.08,NNE,19,0.0,0.0,59,0.00,CLR,,0.00,WeatherDisplay:10.37,2013-09-04 23:37:00,
2013-09-04 19:42:00,75.9,60.6,30.09,NNE,19,0.0,0.0,59,0.00,CLR,,0.00,WeatherDisplay:10.37,2013-09-04 23:42:00,
2013-09-04 19:47:00,75.6,60.7,30.09,NNE,19,0.0,0.0,60,0.00,CLR,,0.00,WeatherDisplay:10.37,2013-09-04 23:47:00,
2013-09-04 19:52:00,75.0,60.2,30.09,North,357,0.0,0.0,60,0.00,CLR,,0.00,WeatherDisplay:10.37,2013-09-04 23:52:00,
2013-09-04 19:57:00,74.5,60.1,30.09,North,357,0.0,0.0,61,0.00,CLR,,0.00,WeatherDisplay:10.37,2013-09-04 23:57:00,
2013-09-04 20:02:00,74.1,59.8,30.09,NW,312,0.0,0.0,61,0.00,CLR,,0.00,WeatherDisplay:10.37,2013-09-05 00:02:00,
2013-09-04 20:07:00,73.4,59.6,30.09,WNW,289,0.0,0.0,62,0.00,CLR,,0.00,WeatherDisplay:10.37,2013-09-05 00:07:00,
2013-09-04 20:12:00,73.0,59.7,30.09,WNW,289,0.0,0.0,63,0.00,CLR,,0.00,WeatherDisplay:10.37,2013-09-05 00:12:00,
2013-09-04 20:17:00,72.3,59.0,30.09,West,267,0.0,0.0,63,0.00,CLR,,0.00,WeatherDisplay:10.37,2013-09-05 00:17:00,
2013-09-04 20:22:00,72.1,59.3,30.10,West,267,0.0,0.0,64,0.00,CLR,,0.00,WeatherDisplay:10.37,2013-09-05 00:22:00,
2013-09-04 20:27:00,71.2,59.3,30.10,West,267,0.0,0.0,66,0.00,CLR,,0.00,WeatherDisplay:10.37,2013-09-05 00:27:00,
2013-09-04 20:32:00,70.9,59.0,30.09,West,267,0.0,0.0,66,0.00,CLR,,0.00,WeatherDisplay:10.37,2013-09-05 00:32:00,
2013-09-04 20:37:00,70.3,58.9,30.10,West,267,0.0,0.0,67,0.00,CLR,,0.00,WeatherDisplay:10.37,2013-09-05 00:37:00,
2013-09-04 20:42:00,70.2,58.7,30.10,West,267,0.0,0.0,67,0.00,CLR,,0.00,WeatherDisplay:10.37,2013-09-05 00:42:00,
2013-09-04 20:47:00,69.8,58.8,30.10,West,267,0.0,0.0,68,0.00,CLR,,0.00,WeatherDisplay:10.37,2013-09-05 00:47:00,
2013-09-04 20:52:00,69.4,58.8,30.10,West,267,0.0,0.0,69,0.00,CLR,,0.00,WeatherDisplay:10.37,2013-09-05 00:52:00,
2013-09-04 20:57:00,69.1,58.9,30.11,West,267,0.0,0.0,70,0.00,CLR,,0.00,WeatherDisplay:10.37,2013-09-05 00:57:00,
2013-09-04 21:02:00,68.9,58.7,30.11,West,267,0.0,0.0,70,0.00,CLR,,0.00,WeatherDisplay:10.37,2013-09-05 01:02:00,
2013-09-04 21:07:00,68.7,58.5,30.11,West,267,0.0,0.0,70,0.00,CLR,,0.00,WeatherDisplay:10.37,2013-09-05 01:07:00,
2013-09-04 21:12:00,68.5,58.4,30.11,West,267,0.0,0.0,70,0.00,CLR,,0.00,WeatherDisplay:10.37,2013-09-05 01:12:00,
2013-09-04 21:18:00,68.4,58.2,30.12,West,267,0.0,0.0,70,0.00,CLR,,0.00,WeatherDisplay:10.37,2013-09-05 01:18:00,
2013-09-04 21:23:00,68.0,58.2,30.12,West,267,0.0,0.0,71,0.00,CLR,,0.00,WeatherDisplay:10.37,2013-09-05 01:23:00,
2013-09-04 21:28:00,67.8,58.1,30.11,West,267,0.0,0.0,71,0.00,CLR,,0.00,WeatherDisplay:10.37,2013-09-05 01:28:00,
2013-09-04 21:33:00,67.6,57.9,30.12,West,267,0.0,0.0,71,0.00,CLR,,0.00,WeatherDisplay:10.37,2013-09-05 01:33:00,
2013-09-04 21:38:00,67.5,57.7,30.12,West,267,0.0,0.0,71,0.00,CLR,,0.00,WeatherDisplay:10.37,2013-09-05 01:38:00,
2013-09-04 21:43:00,67.3,57.6,30.12,West,267,0.0,0.0,71,0.00,CLR,,0.00,WeatherDisplay:10.37,2013-09-05 01:43:00,
2013-09-04 21:48:00,67.3,57.9,30.12,West,267,0.0,0.0,72,0.00,CLR,,0.00,WeatherDisplay:10.37,2013-09-05 01:48:00,
2013-09-04 21:53:00,66.9,57.6,30.11,West,267,0.0,0.0,72,0.00,CLR,,0.00,WeatherDisplay:10.37,2013-09-05 01:53:00,
2013-09-04 21:58:00,66.9,57.6,30.11,West,267,0.0,0.0,72,0.00,CLR,,0.00,WeatherDisplay:10.37,2013-09-05 01:58:00,
2013-09-04 22:03:00,66.7,57.4,30.11,West,267,0.0,0.0,72,0.00,CLR,,0.00,WeatherDisplay:10.37,2013-09-05 02:03:00,
2013-09-04 22:08:00,66.7,57.4,30.12,West,267,0.0,0.0,72,0.00,CLR,,0.00,WeatherDisplay:10.37,2013-09-05 02:08:00,
2013-09-04 22:13:00,66.6,57.3,30.12,West,267,0.0,0.0,72,0.00,CLR,,0.00,WeatherDisplay:10.37,2013-09-05 02:13:00,
2013-09-04 22:18:00,66.4,57.1,30.11,West,267,0.0,0.0,72,0.00,CLR,,0.00,WeatherDisplay:10.37,2013-09-05 02:18:00,
2013-09-04 22:23:00,66.0,56.7,30.12,West,267,0.0,0.0,72,0.00,CLR,,0.00,WeatherDisplay:10.37,2013-09-05 02:23:00,
2013-09-04 22:28:00,66.0,57.1,30.11,West,267,0.0,0.0,73,0.00,CLR,,0.00,WeatherDisplay:10.37,2013-09-05 02:28:00,
2013-09-04 22:33:00,65.8,56.9,30.12,West,267,0.0,0.0,73,0.00,CLR,,0.00,WeatherDisplay:10.37,2013-09-05 02:33:00,
2013-09-04 22:38:00,65.7,56.8,30.12,West,267,0.0,0.0,73,0.00,CLR,,0.00,WeatherDisplay:10.37,2013-09-05 02:38:00,
2013-09-04 22:43:00,65.7,56.8,30.12,West,267,0.0,0.0,73,0.00,CLR,,0.00,WeatherDisplay:10.37,2013-09-05 02:43:00,
2013-09-04 22:48:00,65.5,56.2,30.12,West,267,0.0,0.0,72,0.00,CLR,,0.00,WeatherDisplay:10.37,2013-09-05 02:48:00,
2013-09-04 22:53:00,65.5,56.6,30.12,West,267,0.0,0.0,73,0.00,CLR,,0.00,WeatherDisplay:10.37,2013-09-05 02:53:00,
2013-09-04 22:58:00,65.3,56.8,30.12,West,267,0.0,0.0,74,0.00,CLR,,0.00,WeatherDisplay:10.37,2013-09-05 02:58:00,
2013-09-04 23:03:00,65.1,57.0,30.13,West,267,0.0,0.0,75,0.00,CLR,,0.00,WeatherDisplay:10.37,2013-09-05 03:03:00,
2013-09-04 23:08:00,65.1,57.0,30.13,West,267,0.0,0.0,75,0.00,CLR,,0.00,WeatherDisplay:10.37,2013-09-05 03:08:00,
2013-09-04 23:13:00,65.1,57.0,30.13,West,267,0.0,0.0,75,0.00,CLR,,0.00,WeatherDisplay:10.37,2013-09-05 03:13:00,
2013-09-04 23:18:00,64.9,56.8,30.13,West,267,0.0,0.0,75,0.00,CLR,,0.00,WeatherDisplay:10.37,2013-09-05 03:18:00,
2013-09-04 23:23:00,64.9,57.2,30.13,West,267,0.0,0.0,76,0.00,CLR,,0.00,WeatherDisplay:10.37,2013-09-05 03:23:00,
2013-09-04 23:28:00,64.9,57.6,30.13,West,267,0.0,0.0,77,0.00,CLR,,0.00,WeatherDisplay:10.37,2013-09-05 03:28:00,
2013-09-04 23:33:00,64.8,57.0,30.13,West,267,0.0,0.0,76,0.00,CLR,,0.00,WeatherDisplay:10.37,2013-09-05 03:33:00,
2013-09-04 23:38:00,64.6,56.8,30.13,West,267,0.0,0.0,76,0.00,CLR,,0.00,WeatherDisplay:10.37,2013-09-05 03:38:00,
2013-09-04 23:43:00,64.6,56.8,30.13,West,267,0.0,0.0,76,0.00,CLR,,0.00,WeatherDisplay:10.37,2013-09-05 03:43:00,
2013-09-04 23:48:00,64.6,57.6,30.13,West,267,0.0,0.0,78,0.00,CLR,,0.00,WeatherDisplay:10.37,2013-09-05 03:48:00,
2013-09-04 23:53:00,64.2,57.6,30.14,West,267,0.0,0.0,79,0.00,CLR,,0.00,WeatherDisplay:10.37,2013-09-05 03:53:00,
2013-09-04 23:58:00,64.6,57.9,30.13,West,267,0.0,0.0,79,0.00,CLR,,0.00,WeatherDisplay:10.37,2013-09-05 03:58:00,